Portada
METAR-TAF:

METAR-TAF

Aeroports :

Aeroport Internacional de Djerba

Gerba, Tunísia

latitud: 33-52N, longitud: 010-46E, altitud: 3 m

Observació

L'informe es va fer fa 44 minuts, a les 09:30 UTC
Vent 12 kt del Est
Temperatura 27°C
Humitat 70%
Pressió 1017 hPa
Visibilitat 10 km o més
sense núvols per sota de 1500 mi sense presència de cumulonimbus.

METAR: DTTJ 190930Z 08012KT CAVOK 27/21 Q1017 NOSIG

Hora: 11:14 (10:14 UTC)

Pronòstic

L'informe es va fer fa 5 hores i 14 minuts, a les 05:00 UTC
Pronòstic vàlid del 19 a les 06 UTC al 20 a les 06 UTC
Vent 5 kt del Est
Visibilitat 10 km o més
sense núvols per sota de 1500 mi sense presència de cumulonimbus.
Evolucionant progressivament
l' 19 a les 18 UTC al 19 a les 20 UTC
Vent 10 kt del Est

TAF: DTTJ 190500Z 1906/2006 09005KT CAVOK BECMG 1918/1920 10010KT

Observacions i pronòstics meteorològics de més de 4000 aeroports (METAR i TAF).

Les estacions disponibles són els punts grocs i vermells al mapa.

Posi el ratolí al punt desitjat per veure el nom de l'estació.

Feu clic per veure les observacions i els pronòstics meteorològics.

Per canviar el mapa: feu clic els botons verds amb una creu de color negre per apropar; al botó verd amb un guió per allunyar la imatge; o en les fletxes verdes per a mapes adjacents.


METAR-TAF: